Tonos — V7EF2 — position and weather

sailwx.info

Track history (hours):
 
Tides and Currents Weather Stations Pressure Air Temp Water Temp Dewpoint Dewpoint Depression Visibility Wind Speed Wind Dir Waves Ship Positions

Tonos

Last reported at 2016-Aug-19 04:09 UTC. Time now 2016-Oct-01 01:40 UTC.
Position N 01°55' E 102°20'.
Warning: this ship's position is 42 days out of date.

Length 276 m; draft 8.5 m.

Type: Tanker. MMSI: 538006541.

Date/timePositionNaut miles runAvg speedWind from/ knotsBaromVisibWave heightAir tempDewpointWater temp
2016-Aug-19 04:09N 01°55' E 102°20'710.9
2016-Aug-19 03:33N 01°52' E 102°26'1010.3
2016-Aug-19 02:33N 01°48' E 102°36'10 9.6
2016-Aug-19 01:32N 01°44' E 102°44'5012.4
2016-Aug-18 21:28N 01°14' E 103°25'1213.4
2016-Aug-18 20:33N 01°12' E 103°37'1010.0
2016-Aug-18 19:33N 01°10' E 103°47'1010.4
2016-Aug-18 18:33N 01°14' E 103°56'9 1.0
2016-Aug-18 09:31N 01°18' E 104°04'  
Track history (hours):
 
Tides and Currents Weather Stations Pressure Air Temp Water Temp Dewpoint Dewpoint Depression Visibility Wind Speed Wind Dir Waves Ship Positions

Tonos

Last reported at 2016-Aug-19 04:09 UTC. Time now 2016-Oct-01 01:40 UTC.
Position N 01°55' E 102°20'.
Warning: this ship's position is 42 days out of date.

Length 276 m; draft 8.5 m.

Type: Tanker. MMSI: 538006541.

Date/timePositionNaut miles runAvg speedWind from/ knotsBaromVisibWave heightAir tempDewpointWater temp
2016-Aug-19 04:09N 01°55' E 102°20'710.9
2016-Aug-19 03:33N 01°52' E 102°26'1010.3
2016-Aug-19 02:33N 01°48' E 102°36'10 9.6
2016-Aug-19 01:32N 01°44' E 102°44'5012.4
2016-Aug-18 21:28N 01°14' E 103°25'1213.4
2016-Aug-18 20:33N 01°12' E 103°37'1010.0
2016-Aug-18 19:33N 01°10' E 103°47'1010.4
2016-Aug-18 18:33N 01°14' E 103°56'9 1.0
2016-Aug-18 09:31N 01°18' E 104°04'  

Dump ship's entire track history